Weather at Manang Airport

Public forecast

Using degrees Celsius for public forecast. Weather courtesy of forecast.io.

Closest aviation weather report (METAR) to Manang Airport

Closest report is Tribhuvan International Airport, 88.0 nm (162.9 km) SE.

2024/05/30 09:30 (retrieved 14 minutes ago)

VNKT 300930Z 23008KT 190V260 8000 FEW020 SCT030 31/20 Q1008 NOSIG

Closest aviation forecast (TAF) to Manang Airport

Closest forecast is Tribhuvan International Airport, 88.0 nm (162.9 km) SE.

2024/05/30 06:45 (retrieved 3 hours ago)

TAF VNKT 300500Z 3006/3106 24005KT 7000 FEW020 SCT030 BECMG 3008/3010 24009KT 8000 FEW020 SCT030 BKN100 PROB30 3008/3013 VRB12KT 5000 -TSRA/-SHRA FEW025CB BECMG 3015/3017 22005KT 7000 FEW015 BKN100 BECMG 3100/3102 VRB02KT 4000 BR FEW015 BECMG 3104/3105 15004KT 6000 FEW015 SCT100